• Join FlightAware (Why Join?)
  • Login
  • US Flag 
02:23AM EDT


 

Airport Tracker/Info


-or-


 

Live Flight TrackerFlight Track Log ✈ N354LQ ✈ 05-Aug-2014 ✈ KADS - KGVT

Flight Track Log - Related Links

Times and Time Zones

All times are in EDT time to prevent confusion due to time zone crossing. See the N354LQ flight status page for this flight to view local times or setup timezone preferences in your user account.

Time Position Orientation Groundspeed Altitude Reporting Facility
EDT Latitude Longitude Course Direction KTS MPH feet Rate Location/Type
05:07PM 32.9500 -96.8333 90° East 191 220 1,200  Level Dallas / Fort Worth TRACON
05:08PM 32.9500 -96.7667 90° East 229 264 2,500 1,680 Climbing Dallas / Fort Worth TRACON
05:09PM 32.9692 -96.6728 76° East 268 308 4,900 1,020 Climbing Fort Worth Center
05:10PM 32.9728 -96.5736 87° East 284 327 4,900  Level Fort Worth Center
05:11PM 32.9672 -96.4731 94° East 289 333 5,000  Climbing Fort Worth Center
05:12PM 32.9694 -96.3869 88° East 265 305 5,000  Level Fort Worth Center
05:13PM 32.9778 -96.3036 83° East 242 278 5,000  Level Fort Worth Center
05:14PM 33.0083 -96.2314 63° Northeast 246 283 5,000  Level Fort Worth Center
05:15PM 33.0461 -96.1356 65° Northeast 297 342 5,000 -60 Level Fort Worth Center
05:17PM 33.0486 -96.0553 88° East 254 292 4,900  Descending Fort Worth Center
05:18PM 33.0961 -96.0147 36° Northeast 247 284 5,000  Climbing Fort Worth Center
05:19PM 33.1511 -96.0719 319° Northwest 262 302 5,000  Level Fort Worth Center
05:20PM 33.1969 -96.1383 310° West 273 314 5,000  Level Fort Worth Center
05:21PM 33.2100 -96.2278 280° West 271 312 5,000  Level Fort Worth Center
05:22PM 33.1781 -96.3064 244° Southwest 265 305 5,000 -420 Level Fort Worth Center
05:23PM 33.1428 -96.3892 243° Southwest 263 303 4,200 -780 Descending Fort Worth Center
05:24PM 33.1164 -96.4692 249° West 261 300 3,400 -600 Descending Fort Worth Center
05:25PM 33.0947 -96.5572 254° West 259 298 3,000 -240 Descending Fort Worth Center
05:26PM 33.0775 -96.6322 255° West 224 258 3,000  Level Fort Worth Center
05:27PM 33.0578 -96.7017 251° West 223 257 3,000  Level Fort Worth Center
05:28PM 33.0544 -96.7725 267° West 199 229 3,000 -480 Level Fort Worth Center
05:29PM 33.0344 -96.8322 248° West 197 227 2,100 -960 Descending Fort Worth Center
05:30PM 32.9908 -96.8464 195° South 154 177 1,100 -660 Descending Fort Worth Center
05:31PM 32.9542 -96.8297 159° South 144 166 800 -300 Descending Fort Worth Center
05:33PM 32.9654 -96.7132 83° East  Level FlightAware Approximate
05:40PM 33.0122 -96.1802 68° East  Level FlightAware Approximate